El Cerrito, CA (94530)

4:14 PM PST on December 08, 2016 (GMT -0800)
| | Change Station

Elev -9999 ft 0.00 °N, 0.00 °E | Updated 12 minutes ago

Overcast
Overcast
53 °F
Feels Like 53 °F
N
9
Wind Variable Wind from South
Gusts mph

Today
High -- | Low -- °F
--% Chance of Precip.
Yesterday
High -- | Low -- °F
Precip. -- in
Pressure 30.14 in
Visibility 1.0 miles
Clouds Overcast 300 ft
Dew Point 48 °F
Humidity 85%
Rainfall --
Snow Depth Not available.
7:13 AM 4:49 PM
Waxing Gibbous, 68% visible
SPECI KCCR 090000Z 00000KT 1SM -RA BR OVC003 12/10 A3014 RMK AO2 RAB00 P0000 T01170100
Pressure 30.14 in
Visibility 1.0 miles
Clouds Overcast 300 ft
Dew Point 48 °F
Humidity 85%
Rainfall --
Snow Depth Not available.
7:13 AM 4:49 PM
Waxing Gibbous, 68% visible
SPECI KCCR 090000Z 00000KT 1SM -RA BR OVC003 12/10 A3014 RMK AO2 RAB00 P0000 T01170100

10-Day Weather Forecast

Almanac

Astronomy

Dec. 08, 2016 Rise Set
Actual Time
Civil Twilight
Nautical Twilight
Astronomical Twilight
Moon
Length of Visible Light
Length of Day
Tomorrow will be .
, % of the Moon is Illuminated

Today's Extremes

State Highs State Lows

Community

WunderPhotos

Upload Photos

1,956,277 photos uploaded!

WunderBlog® & News

Nearby

Air Quality

  Air Quality AQ Index Pollutant
Not available.

Snow Depth

Station Depth Elevation

Earthquake Activity

City Distance Mag. Time & Date
Minimum magnitude displayed is 2.5.

Coastal Water Temperatures

Place Temperature

Stations

Nearby Weather Stations

Station Location Temp. Windchill Dew Point Humidity Wind Precip. Elev Updated Type
                   

Watches & Warnings

There are currently no watches in effect.